createdAt,value
2023-02-24T00:01:59.981Z,74.20
2023-02-24T00:04:40.145Z,74.50
2023-02-24T00:07:14.428Z,73.60
2023-02-24T00:09:48.371Z,72.10
2023-02-24T00:12:23.081Z,74.30
2023-02-24T00:14:59.034Z,70.20
2023-02-24T00:17:31.479Z,72.30
2023-02-24T00:20:13.991Z,74.20
2023-02-24T00:22:48.169Z,73.00
2023-02-24T00:25:22.511Z,71.40
2023-02-24T00:28:01.602Z,75.80
2023-02-24T00:30:37.232Z,74.40
2023-02-24T00:33:13.263Z,73.90
2023-02-24T00:35:49.844Z,76.80
2023-02-24T00:38:25.287Z,75.70
2023-02-24T00:40:57.181Z,72.80
2023-02-24T00:43:37.260Z,78.40
2023-02-24T00:46:11.737Z,73.00
2023-02-24T00:48:46.512Z,76.40
2023-02-24T00:51:23.540Z,75.40
2023-02-24T00:53:59.833Z,76.10
2023-02-24T00:56:34.047Z,73.60
2023-02-24T00:59:07.695Z,80.90
2023-02-24T01:01:49.526Z,74.70
2023-02-24T01:04:24.922Z,72.90
2023-02-24T01:07:00.349Z,78.30
2023-02-24T01:09:35.327Z,78.10
2023-02-24T01:12:34.071Z,75.90
2023-02-24T01:15:10.794Z,73.10
2023-02-24T01:17:47.340Z,76.00
2023-02-24T01:20:20.008Z,78.70
2023-02-24T01:22:54.315Z,78.40
2023-02-24T01:25:34.779Z,78.20
2023-02-24T01:28:08.293Z,70.40
2023-02-24T01:30:40.082Z,79.20
2023-02-24T01:33:14.639Z,77.60
2023-02-24T01:35:49.393Z,71.00
2023-02-24T01:38:25.438Z,70.20
2023-02-24T01:41:05.644Z,75.70
2023-02-24T01:44:22.461Z,73.90
2023-02-24T01:46:57.508Z,66.20
2023-02-24T01:49:43.795Z,67.50
2023-02-24T01:52:22.564Z,68.20
2023-02-24T01:54:58.768Z,70.10
2023-02-24T01:57:36.561Z,66.60
2023-02-24T02:00:31.393Z,65.20
2023-02-24T02:03:14.434Z,63.80
2023-02-24T02:05:49.755Z,61.00
2023-02-24T02:08:27.367Z,64.90
2023-02-24T02:11:06.800Z,60.30
2023-02-24T02:13:43.508Z,61.80
2023-02-24T02:16:45.553Z,61.30
2023-02-24T02:19:55.200Z,61.10
2023-02-24T02:23:00.597Z,57.30
2023-02-24T02:25:46.321Z,55.80
2023-02-24T02:28:44.918Z,58.00
2023-02-24T02:32:04.180Z,55.90
2023-02-24T02:34:50.544Z,53.10
2023-02-24T02:37:34.334Z,54.00
2023-02-24T02:40:20.302Z,58.00
2023-02-24T02:43:00.375Z,52.70
2023-02-24T02:45:41.551Z,52.40
2023-02-24T02:48:21.421Z,53.90
2023-02-24T02:51:04.507Z,51.30
2023-02-24T02:53:43.378Z,51.80
2023-02-24T02:56:20.314Z,48.50
2023-02-24T02:58:57.446Z,47.80
2023-02-24T03:01:33.802Z,50.40
2023-02-24T03:04:11.883Z,47.00
2023-02-24T03:06:54.162Z,47.80
2023-02-24T03:09:29.349Z,49.50
2023-02-24T03:12:08.535Z,51.20
2023-02-24T03:14:51.536Z,48.90
2023-02-24T03:17:27.409Z,45.80
2023-02-24T03:20:13.956Z,46.90
2023-02-24T03:22:51.852Z,52.80
2023-02-24T03:25:31.228Z,47.30
2023-02-24T03:28:16.026Z,46.80
2023-02-24T03:30:59.988Z,46.50
2023-02-24T03:33:38.698Z,46.30
2023-02-24T03:36:15.411Z,44.20
2023-02-24T03:38:53.288Z,46.90
2023-02-24T03:41:30.170Z,45.80
2023-02-24T03:44:06.327Z,43.60
2023-02-24T03:46:38.452Z,44.40
2023-02-24T03:49:13.363Z,43.90
2023-02-24T03:51:56.765Z,45.00
2023-02-24T03:54:47.935Z,46.20
2023-02-24T03:57:34.642Z,42.30
2023-02-24T04:00:23.157Z,44.40
2023-02-24T04:03:06.723Z,42.00
2023-02-24T04:05:47.720Z,43.90
2023-02-24T04:08:26.637Z,43.50
2023-02-24T04:11:04.884Z,44.30
2023-02-24T04:13:45.698Z,43.60
2023-02-24T04:16:37.748Z,43.60
2023-02-24T04:19:17.075Z,43.80
2023-02-24T04:21:52.444Z,41.20
2023-02-24T04:24:32.933Z,41.10
2023-02-24T04:27:12.484Z,41.80
2023-02-24T04:29:53.235Z,41.20
2023-02-24T04:32:31.553Z,39.70
2023-02-24T04:35:12.825Z,40.40
2023-02-24T04:37:48.411Z,40.60
2023-02-24T04:40:26.236Z,38.40
2023-02-24T04:42:59.570Z,43.90
2023-02-24T04:45:32.854Z,41.40
2023-02-24T04:48:12.715Z,46.60
2023-02-24T04:50:45.648Z,46.40
2023-02-24T04:53:18.769Z,48.70
2023-02-24T04:55:52.483Z,46.70
2023-02-24T04:58:28.640Z,47.40
2023-02-24T05:01:02.476Z,47.20
2023-02-24T05:03:35.732Z,46.70
2023-02-24T05:06:10.483Z,47.20
2023-02-24T05:08:42.407Z,47.00
2023-02-24T05:11:20.218Z,44.70
2023-02-24T05:13:53.848Z,47.60
2023-02-24T05:16:28.828Z,50.90
2023-02-24T05:19:28.360Z,47.30
2023-02-24T05:22:03.604Z,47.80
2023-02-24T05:24:41.267Z,54.80
2023-02-24T05:27:12.913Z,49.60
2023-02-24T05:29:49.624Z,48.20
2023-02-24T05:32:24.523Z,50.60
2023-02-24T05:34:58.732Z,46.40
2023-02-24T05:37:34.248Z,46.00
2023-02-24T05:40:14.336Z,49.70
2023-02-24T05:42:46.847Z,46.80
2023-02-24T05:45:29.993Z,45.40
2023-02-24T05:48:06.162Z,44.40
2023-02-24T05:50:39.526Z,44.30
2023-02-24T05:53:10.420Z,44.70
2023-02-24T05:55:44.500Z,48.50
2023-02-24T05:58:16.663Z,44.60
2023-02-24T06:00:52.097Z,46.10
2023-02-24T06:03:31.783Z,44.80
2023-02-24T06:06:10.285Z,48.80
2023-02-24T06:08:49.540Z,44.80
2023-02-24T06:11:23.641Z,43.70
2023-02-24T06:13:58.275Z,46.00
2023-02-24T06:16:31.684Z,43.40
2023-02-24T06:19:05.756Z,44.50
2023-02-24T06:21:41.574Z,42.10
2023-02-24T06:24:18.538Z,42.60
2023-02-24T06:26:53.441Z,42.80
2023-02-24T06:29:29.499Z,44.60
2023-02-24T06:32:08.834Z,50.80
2023-02-24T06:34:41.710Z,51.00
2023-02-24T06:37:17.481Z,45.80
2023-02-24T06:39:51.653Z,46.90
2023-02-24T06:42:25.359Z,51.20
2023-02-24T06:44:58.761Z,48.60
2023-02-24T06:47:32.612Z,49.90
2023-02-24T06:50:10.360Z,50.50
2023-02-24T06:52:46.808Z,47.50
2023-02-24T06:55:25.683Z,52.10
2023-02-24T06:58:08.357Z,69.00
2023-02-24T07:00:43.056Z,62.80
2023-02-24T07:03:21.083Z,60.50
2023-02-24T07:06:11.567Z,55.00
2023-02-24T07:08:46.475Z,52.00
2023-02-24T07:11:21.349Z,48.70
2023-02-24T07:13:55.608Z,50.20
2023-02-24T07:16:30.431Z,48.10
2023-02-24T07:19:05.520Z,51.10
2023-02-24T07:21:40.526Z,51.10
2023-02-24T07:24:16.648Z,49.60
2023-02-24T07:26:56.698Z,49.90
2023-02-24T07:29:31.018Z,49.20
2023-02-24T07:32:05.552Z,52.50
2023-02-24T07:34:41.039Z,50.00
2023-02-24T07:37:13.801Z,45.70
2023-02-24T07:39:50.704Z,45.80
2023-02-24T07:42:22.245Z,44.90
2023-02-24T07:44:56.508Z,43.50
2023-02-24T07:47:30.485Z,43.60
2023-02-24T07:50:07.908Z,40.90
2023-02-24T07:52:39.066Z,37.50
2023-02-24T07:55:15.736Z,37.60
2023-02-24T07:57:56.793Z,41.70
2023-02-24T08:00:31.408Z,47.40
2023-02-24T08:03:03.799Z,32.60
2023-02-24T08:05:44.687Z,23.20
2023-02-24T08:08:21.166Z,23.40
2023-02-24T08:11:05.569Z,19.00
2023-02-24T08:13:38.341Z,20.10
2023-02-24T08:16:12.424Z,15.60
2023-02-24T08:18:48.678Z,14.40
2023-02-24T08:21:22.181Z,13.50
2023-02-24T08:23:56.422Z,14.00
2023-02-24T08:26:31.942Z,14.00
2023-02-24T08:29:07.320Z,12.30
2023-02-24T08:31:38.662Z,14.40
2023-02-24T08:34:16.345Z,12.20
2023-02-24T08:36:55.355Z,11.00
2023-02-24T08:39:36.757Z,11.90
2023-02-24T08:42:09.686Z,12.40
2023-02-24T08:44:46.030Z,11.80
2023-02-24T08:47:21.587Z,11.80
2023-02-24T08:49:55.540Z,12.90
2023-02-24T08:52:27.479Z,11.30
2023-02-24T08:55:10.972Z,11.60
2023-02-24T08:57:53.403Z,12.40
2023-02-24T09:00:46.707Z,11.20
2023-02-24T09:03:29.769Z,10.10
2023-02-24T09:06:06.565Z,13.80
2023-02-24T09:08:41.842Z,12.60
2023-02-24T09:11:16.526Z,12.50
2023-02-24T09:13:56.701Z,12.90
2023-02-24T09:16:28.746Z,12.40
2023-02-24T09:19:40.671Z,13.70
2023-02-24T09:22:30.769Z,13.70
2023-02-24T09:25:18.468Z,19.30
2023-02-24T09:28:07.719Z,10.90
2023-02-24T09:30:52.788Z,15.10
2023-02-24T09:33:28.787Z,13.40
2023-02-24T09:36:11.238Z,15.00
2023-02-24T09:39:02.004Z,14.50
2023-02-24T09:41:51.929Z,13.40
2023-02-24T09:44:33.985Z,12.70
2023-02-24T09:47:14.098Z,13.80
2023-02-24T09:49:56.698Z,10.40
2023-02-24T09:52:41.793Z,11.50
2023-02-24T09:55:25.856Z,10.50
2023-02-24T09:58:19.215Z,11.40
2023-02-24T10:01:00.107Z,11.20
2023-02-24T10:04:08.785Z,10.50
2023-02-24T10:06:51.569Z,12.50
2023-02-24T10:09:33.995Z,11.80
2023-02-24T10:12:17.410Z,11.50
2023-02-24T10:15:16.288Z,14.20
2023-02-24T10:17:56.838Z,15.80
2023-02-24T10:20:39.092Z,12.50
2023-02-24T10:23:32.329Z,14.70
2023-02-24T10:26:08.010Z,14.50
2023-02-24T10:28:51.984Z,13.10
2023-02-24T10:31:34.957Z,17.40
2023-02-24T10:34:11.534Z,15.90
2023-02-24T10:36:48.511Z,15.20
2023-02-24T10:39:25.146Z,11.40
2023-02-24T10:42:15.163Z,16.20
2023-02-24T10:45:01.375Z,15.60
2023-02-24T10:47:35.465Z,13.20
2023-02-24T10:50:19.306Z,16.00
2023-02-24T10:53:08.674Z,14.20
2023-02-24T10:56:02.012Z,12.40
2023-02-24T10:58:44.489Z,11.30
2023-02-24T11:01:21.070Z,12.30
2023-02-24T11:04:22.880Z,13.60
2023-02-24T11:07:10.083Z,11.90
2023-02-24T11:09:52.693Z,11.70
2023-02-24T11:12:45.031Z,13.30
2023-02-24T11:15:43.364Z,12.80
2023-02-24T11:18:20.346Z,14.40
2023-02-24T11:20:55.661Z,14.00
2023-02-24T11:23:35.268Z,13.50
2023-02-24T11:26:26.757Z,13.10
2023-02-24T11:29:10.643Z,10.30
2023-02-24T11:32:09.397Z,13.30
2023-02-24T11:35:08.720Z,12.50
2023-02-24T11:37:44.754Z,10.10
2023-02-24T11:40:23.539Z,9.00
2023-02-24T11:43:01.015Z,11.70
2023-02-24T11:45:39.656Z,11.90
2023-02-24T11:48:22.982Z,10.90
2023-02-24T11:51:02.579Z,13.30
2023-02-24T11:53:41.507Z,11.00
2023-02-24T11:56:20.158Z,9.60
2023-02-24T11:59:00.870Z,8.30
2023-02-24T12:01:44.666Z,7.50
2023-02-24T12:04:26.442Z,10.70
2023-02-24T12:07:06.935Z,10.50
2023-02-24T12:09:46.292Z,11.30
2023-02-24T12:12:28.670Z,14.50
2023-02-24T12:15:03.827Z,7.50
2023-02-24T12:17:39.721Z,22.60
2023-02-24T12:20:28.094Z,7.50
2023-02-24T12:23:10.295Z,16.40
2023-02-24T12:26:02.139Z,6.90
2023-02-24T12:28:54.373Z,7.70
2023-02-24T12:31:41.603Z,8.90
2023-02-24T12:34:33.102Z,7.80
2023-02-24T12:37:24.791Z,8.50
2023-02-24T12:40:12.109Z,9.30
2023-02-24T12:42:52.355Z,11.30
2023-02-24T12:45:37.768Z,14.10
2023-02-24T12:48:27.833Z,17.60
2023-02-24T12:51:08.967Z,15.50
2023-02-24T12:54:00.387Z,35.60
2023-02-24T12:56:44.050Z,27.10
2023-02-24T12:59:22.890Z,37.90
2023-02-24T13:02:07.250Z,25.60
2023-02-24T13:04:50.572Z,20.00
2023-02-24T13:07:38.860Z,32.40
2023-02-24T13:10:28.559Z,27.40
2023-02-24T13:13:09.173Z,16.90
2023-02-24T13:15:54.423Z,41.00
2023-02-24T13:18:32.654Z,24.20
2023-02-24T13:21:11.240Z,16.30
2023-02-24T13:24:01.781Z,21.00
2023-02-24T13:26:35.319Z,13.40
2023-02-24T13:29:16.335Z,13.60
2023-02-24T13:31:55.701Z,15.30
2023-02-24T13:34:45.068Z,12.00
2023-02-24T13:37:29.947Z,17.70
2023-02-24T13:40:13.270Z,21.80
2023-02-24T13:42:58.142Z,16.60
2023-02-24T13:45:33.976Z,14.30
2023-02-24T13:48:35.747Z,14.60
2023-02-24T13:51:33.015Z,23.30
2023-02-24T13:54:20.910Z,18.10
2023-02-24T13:57:04.957Z,15.40
2023-02-24T14:00:10.629Z,30.60
2023-02-24T14:02:46.327Z,16.80
2023-02-24T14:05:26.933Z,14.80
2023-02-24T14:08:00.200Z,15.30
2023-02-24T14:10:37.888Z,16.80
2023-02-24T14:13:18.031Z,17.20
2023-02-24T14:15:50.559Z,18.60
2023-02-24T14:18:27.680Z,25.50
2023-02-24T14:21:01.122Z,15.60
2023-02-24T14:23:37.510Z,16.70
2023-02-24T14:26:18.538Z,16.20
2023-02-24T14:29:00.657Z,18.00
2023-02-24T14:31:33.893Z,27.20
2023-02-24T14:34:08.862Z,21.40
2023-02-24T14:36:46.955Z,13.50
2023-02-24T14:39:23.561Z,17.10
2023-02-24T14:42:13.149Z,12.80
2023-02-24T14:44:47.960Z,15.10
2023-02-24T14:47:23.204Z,16.30
2023-02-24T14:49:59.601Z,20.50
2023-02-24T14:52:40.896Z,20.80
2023-02-24T14:55:18.333Z,20.90
2023-02-24T14:57:59.011Z,25.40
2023-02-24T15:00:36.342Z,28.30
2023-02-24T15:03:16.170Z,19.70
2023-02-24T15:05:59.320Z,14.60
2023-02-24T15:08:39.108Z,83.50
2023-02-24T15:11:22.637Z,23.90
2023-02-24T15:13:59.066Z,29.40
2023-02-24T15:16:38.964Z,19.00
2023-02-24T15:19:28.219Z,19.70
2023-02-24T15:22:05.754Z,55.10
2023-02-24T15:24:38.203Z,56.70
2023-02-24T15:27:25.672Z,43.20
2023-02-24T15:30:27.165Z,50.40
2023-02-24T15:33:17.804Z,43.70
2023-02-24T15:35:54.043Z,35.20
2023-02-24T15:38:32.638Z,62.60
2023-02-24T15:41:09.478Z,23.50
2023-02-24T15:43:49.966Z,69.40
2023-02-24T15:46:29.425Z,35.00
2023-02-24T15:49:02.655Z,56.70
2023-02-24T15:51:40.286Z,32.30
2023-02-24T15:54:15.867Z,40.50
2023-02-24T15:56:51.121Z,40.70
2023-02-24T15:59:25.202Z,31.00
2023-02-24T16:01:57.906Z,52.30
2023-02-24T16:04:33.446Z,53.80
2023-02-24T16:07:12.737Z,31.30
2023-02-24T16:09:46.590Z,36.70
2023-02-24T16:12:28.780Z,37.40
2023-02-24T16:15:27.262Z,47.00
2023-02-24T16:18:01.635Z,33.80
2023-02-24T16:20:39.016Z,20.40
2023-02-24T16:23:16.178Z,27.10
2023-02-24T16:25:48.810Z,29.70
2023-02-24T16:28:23.095Z,36.40
2023-02-24T16:30:55.796Z,24.60
2023-02-24T16:33:36.764Z,19.00
2023-02-24T16:36:21.758Z,23.80
2023-02-24T16:38:55.726Z,21.30
2023-02-24T16:41:30.890Z,26.90
2023-02-24T16:44:03.106Z,21.60
2023-02-24T16:46:40.271Z,31.70
2023-02-24T16:49:19.823Z,38.80
2023-02-24T16:51:53.138Z,37.40
2023-02-24T16:54:33.988Z,33.00
2023-02-24T16:57:07.124Z,32.50
2023-02-24T16:59:40.978Z,37.20
2023-02-24T17:02:27.308Z,34.60
2023-02-24T17:05:06.327Z,39.00
2023-02-24T17:07:40.127Z,28.70
2023-02-24T17:10:22.466Z,28.80
2023-02-24T17:12:59.859Z,31.70
2023-02-24T17:15:44.285Z,38.80
2023-02-24T17:18:18.054Z,38.80
2023-02-24T17:20:54.890Z,40.50
2023-02-24T17:23:30.050Z,38.20
2023-02-24T17:26:05.195Z,29.30
2023-02-24T17:28:38.654Z,41.20
2023-02-24T17:31:31.301Z,52.10
2023-02-24T17:34:07.508Z,42.50
2023-02-24T17:36:46.094Z,41.60
2023-02-24T17:39:23.582Z,37.70
2023-02-24T17:41:58.421Z,95.70
2023-02-24T17:44:32.967Z,75.40
2023-02-24T17:47:09.733Z,67.30
2023-02-24T17:49:41.721Z,56.00
2023-02-24T17:52:15.897Z,42.30
2023-02-24T17:54:48.739Z,44.70
2023-02-24T17:57:23.438Z,35.50
2023-02-24T17:59:56.376Z,34.30
2023-02-24T18:02:33.846Z,27.60
2023-02-24T18:05:07.498Z,30.00
2023-02-24T18:07:44.983Z,32.40
2023-02-24T18:10:19.394Z,38.50
2023-02-24T18:12:51.028Z,34.80
2023-02-24T18:15:24.400Z,37.20
2023-02-24T18:18:06.082Z,29.50
2023-02-24T18:20:44.324Z,30.60
2023-02-24T18:23:16.956Z,30.00
2023-02-24T18:25:48.056Z,26.30
2023-02-24T18:28:25.145Z,30.70
2023-02-24T18:30:56.307Z,22.90
2023-02-24T18:33:30.669Z,28.30
2023-02-24T18:36:07.064Z,26.70
2023-02-24T18:38:41.215Z,27.90
2023-02-24T18:41:17.957Z,30.50
2023-02-24T18:43:53.417Z,30.70
2023-02-24T18:46:31.661Z,37.20
2023-02-24T18:49:05.077Z,37.90
2023-02-24T18:51:49.091Z,37.80
2023-02-24T18:54:23.773Z,48.90
2023-02-24T18:56:58.965Z,58.50
2023-02-24T18:59:32.785Z,63.50
2023-02-24T19:02:08.780Z,48.10
2023-02-24T19:04:44.478Z,49.80
2023-02-24T19:07:17.519Z,67.90
2023-02-24T19:09:55.456Z,45.80
2023-02-24T19:12:28.518Z,32.40
2023-02-24T19:15:06.332Z,31.80
2023-02-24T19:17:40.120Z,48.20
2023-02-24T19:20:19.610Z,66.10
2023-02-24T19:22:57.215Z,33.20
2023-02-24T19:25:30.860Z,76.50
2023-02-24T19:28:04.446Z,76.60
2023-02-24T19:30:45.280Z,42.70
2023-02-24T19:33:22.962Z,67.40
2023-02-24T19:36:01.316Z,51.40
2023-02-24T19:38:39.274Z,31.50
2023-02-24T19:41:13.906Z,24.00
2023-02-24T19:43:46.394Z,26.40
2023-02-24T19:46:20.612Z,48.00
2023-02-24T19:48:53.896Z,63.40
2023-02-24T19:51:30.289Z,40.90
2023-02-24T19:54:06.724Z,25.90
2023-02-24T19:56:40.350Z,37.30
2023-02-24T19:59:17.890Z,33.10
2023-02-24T20:01:54.831Z,30.20
2023-02-24T20:04:32.539Z,43.90
2023-02-24T20:07:08.994Z,34.20
2023-02-24T20:09:46.954Z,25.80
2023-02-24T20:12:19.890Z,26.90
2023-02-24T20:14:53.379Z,26.60
2023-02-24T20:17:25.514Z,28.00
2023-02-24T20:19:59.761Z,26.20
2023-02-24T20:22:32.536Z,26.40
2023-02-24T20:25:05.639Z,27.90
2023-02-24T20:27:43.101Z,23.20
2023-02-24T20:30:23.293Z,23.70
2023-02-24T20:32:59.589Z,29.10
2023-02-24T20:35:32.560Z,24.50
2023-02-24T20:38:04.985Z,24.00
2023-02-24T20:40:41.332Z,22.70
2023-02-24T20:43:13.366Z,17.50
2023-02-24T20:45:47.085Z,18.20
2023-02-24T20:48:23.263Z,16.00
2023-02-24T20:50:56.680Z,22.20
2023-02-24T20:53:32.898Z,14.10
2023-02-24T20:56:14.311Z,13.70
2023-02-24T20:58:47.186Z,12.10
2023-02-24T21:01:24.437Z,15.00
2023-02-24T21:04:07.402Z,9.30
2023-02-24T21:06:39.699Z,9.50
2023-02-24T21:09:13.714Z,9.70
2023-02-24T21:11:48.341Z,9.20
2023-02-24T21:14:24.224Z,9.60
2023-02-24T21:17:00.526Z,7.10
2023-02-24T21:19:33.861Z,7.40
2023-02-24T21:22:17.505Z,7.00
2023-02-24T21:25:01.297Z,7.20
2023-02-24T21:27:35.365Z,6.60
2023-02-24T21:30:29.282Z,6.70
2023-02-24T21:33:02.649Z,8.70
2023-02-24T21:35:36.888Z,7.30
2023-02-24T21:38:11.684Z,7.10
2023-02-24T21:40:45.712Z,6.90
2023-02-24T21:43:22.489Z,7.90
2023-02-24T21:45:58.354Z,6.50
2023-02-24T21:48:30.714Z,6.40
2023-02-24T21:51:06.654Z,5.90
2023-02-24T21:53:39.104Z,7.70
2023-02-24T21:56:22.007Z,7.00
2023-02-24T21:58:58.231Z,9.30
2023-02-24T22:01:34.280Z,6.40
2023-02-24T22:04:15.304Z,8.60
2023-02-24T22:06:53.368Z,8.30
2023-02-24T22:09:26.394Z,8.30
2023-02-24T22:12:00.167Z,8.30
2023-02-24T22:14:40.749Z,8.20
2023-02-24T22:17:18.765Z,7.80
2023-02-24T22:19:56.059Z,8.60
2023-02-24T22:22:37.090Z,9.10
2023-02-24T22:25:12.495Z,7.70
2023-02-24T22:27:49.782Z,8.20
2023-02-24T22:30:22.912Z,8.10
2023-02-24T22:33:04.197Z,7.40
2023-02-24T22:35:43.662Z,8.30
2023-02-24T22:38:17.907Z,7.90
2023-02-24T22:41:04.720Z,9.10
2023-02-24T22:43:38.678Z,7.80
2023-02-24T22:46:17.946Z,7.80
2023-02-24T22:48:50.919Z,8.10
2023-02-24T22:51:29.670Z,8.60
2023-02-24T22:54:06.696Z,8.60
2023-02-24T22:56:39.773Z,9.30
2023-02-24T22:59:18.955Z,9.80
2023-02-24T23:01:58.689Z,9.60
2023-02-24T23:04:37.019Z,10.00
2023-02-24T23:07:10.288Z,9.60
2023-02-24T23:09:52.197Z,9.60
2023-02-24T23:12:26.936Z,10.50
2023-02-24T23:15:05.510Z,12.10
2023-02-24T23:17:41.085Z,10.60
2023-02-24T23:20:17.057Z,10.40
2023-02-24T23:22:53.178Z,10.50
2023-02-24T23:25:26.949Z,9.00
2023-02-24T23:28:00.426Z,9.60
2023-02-24T23:30:35.594Z,9.70
2023-02-24T23:33:11.693Z,9.90
2023-02-24T23:35:46.244Z,10.00
2023-02-24T23:38:26.279Z,12.80
2023-02-24T23:41:03.388Z,11.60
2023-02-24T23:43:40.236Z,11.20
2023-02-24T23:46:17.109Z,10.10
2023-02-24T23:49:01.908Z,9.80
2023-02-24T23:51:48.490Z,11.30
2023-02-24T23:54:23.034Z,10.90
2023-02-24T23:56:56.898Z,10.90
2023-02-24T23:59:32.995Z,9.70
